Lingwood, United Kingdom
Current Conditions -  °F | °C
As of 8:20 AM on Saturday 29 Nov 2014 (Local Time) from EGSD Reporting Station
Haze Haze  
Wind Chill: 10°   Ceiling: Unl
Heat Index: 10°   Visibility: 3mi
Dew Point:   Wind: 12mph
Humidity: 87%   Direction: 110°ESE
Pressure: 29.88"   Gusts: NA
Location:  52.62°N, 1.49°E
Report Text: EGSD 290820Z 11010KT 5000 HZ SCT009 10/08 Q1012
Loading
Personal Weather Stations






























Interactive Weather Map New forecast layout! Learn more

10-Day Weather Forecast

Advertisements
Track Severe Weather on mobile